PWSweather.com
Personal Weather Stations
Station Observations
VAB41
Cheltenham Square, Virginia Beach, VA 23454

Cheltenham SquareVirginia Beach, VA 23454

Lat: 36.832882, Lon: -76.054038

Elevation: 12

Station Type: Ambient WS 2080

Latest ConditionsUpdated 2:55:00 AM EDT Tuesday, Oct 21, 2014
Currently Today's Max Today's Min Today's Average
Temperature 54.1°F12.3°C 55.2°F12.9°C 54.1°F12.3°C 54.6°F12.6°C
Dew Point 53.3°F11.8°C 54.4°F12.4°C 53.3°F11.8°C 53.7°F12.1°C
Winds Calm Calm 0.7 mph ESE1.1 kmh ESE - 0.0 mph 0.0 kmh
Wind Gusts 1.6 mph2.6 kmh 2.2 mph3.5 kmh - -
Humidity 97% 97% 95% 97%
Pressure 29.97 in1014.9 mb 29.98 in1015.2 mb 29.96 in1014.6 mb -
Hour Temp Dew Point Humidity Winds Wind Gusts Pressure Precip Precip Rate Daily Precip Total
02:55 AM 54.1°F12.3°C 53.3°F11.8°C 97% Calm Calm 1.6 mph2.6 kmh 29.97 in1014.9 mb 0.00 in0.0 mm 0.00 in/hr0.0 mm/hr 0.00 in0.0 mm
02:50 AM 54.1°F12.3°C 53.3°F11.8°C 97% Calm Calm 1.6 mph2.6 kmh 29.98 in1015.2 mb 0.00 in0.0 mm 0.00 in/hr0.0 mm/hr 0.00 in0.0 mm
02:45 AM 54.1°F12.3°C 53.3°F11.8°C 97% 0.7 mph NE1.1 kmh NE 1.6 mph2.6 kmh 29.98 in1015.2 mb 0.00 in0.0 mm 0.00 in/hr0.0 mm/hr 0.00 in0.0 mm
02:40 AM 54.1°F12.3°C 53.3°F11.8°C 97% Calm Calm 0.7 mph1.1 kmh 29.98 in1015.2 mb 0.00 in0.0 mm 0.00 in/hr0.0 mm/hr 0.00 in0.0 mm
02:35 AM 54.1°F12.3°C 53.3°F11.8°C 97% Calm Calm -- 29.98 in1015.2 mb 0.00 in0.0 mm 0.00 in/hr0.0 mm/hr 0.00 in0.0 mm
02:30 AM 54.1°F12.3°C 53.3°F11.8°C 97% Calm Calm -- 29.98 in1015.2 mb 0.00 in0.0 mm 0.00 in/hr0.0 mm/hr 0.00 in0.0 mm
02:25 AM 54.1°F12.3°C 53.3°F11.8°C 97% Calm Calm -- 29.98 in1015.2 mb 0.00 in0.0 mm 0.00 in/hr0.0 mm/hr 0.00 in0.0 mm
02:20 AM 54.1°F12.3°C 53.3°F11.8°C 97% Calm Calm -- 29.98 in1015.2 mb 0.00 in0.0 mm 0.00 in/hr0.0 mm/hr 0.00 in0.0 mm
02:15 AM 54.1°F12.3°C 53.3°F11.8°C 97% Calm Calm 0.7 mph1.1 kmh 29.98 in1015.2 mb 0.00 in0.0 mm 0.00 in/hr0.0 mm/hr 0.00 in0.0 mm
02:10 AM 54.1°F12.3°C 53.3°F11.8°C 97% Calm Calm 1.6 mph2.6 kmh 29.98 in1015.2 mb 0.00 in0.0 mm 0.00 in/hr0.0 mm/hr 0.00 in0.0 mm
02:05 AM 54.3°F12.4°C 53.5°F11.9°C 97% Calm Calm 1.6 mph2.6 kmh 29.98 in1015.2 mb 0.00 in0.0 mm 0.00 in/hr0.0 mm/hr 0.00 in0.0 mm
02:00 AM 54.3°F12.4°C 53.5°F11.9°C 97% Calm Calm -- 29.98 in1015.2 mb 0.00 in0.0 mm 0.00 in/hr0.0 mm/hr 0.00 in0.0 mm
01:55 AM 54.3°F12.4°C 53.5°F11.9°C 97% Calm Calm 1.6 mph2.6 kmh 29.98 in1015.2 mb 0.00 in0.0 mm 0.00 in/hr0.0 mm/hr 0.00 in0.0 mm
01:50 AM 54.3°F12.4°C 53.5°F11.9°C 97% Calm Calm 1.6 mph2.6 kmh 29.98 in1015.2 mb 0.00 in0.0 mm 0.00 in/hr0.0 mm/hr 0.00 in0.0 mm
01:45 AM 54.3°F12.4°C 53.5°F11.9°C 97% Calm Calm 1.6 mph2.6 kmh 29.98 in1015.2 mb 0.00 in0.0 mm 0.00 in/hr0.0 mm/hr 0.00 in0.0 mm
01:40 AM 54.5°F12.5°C 53.7°F12.1°C 97% Calm Calm -- 29.98 in1015.2 mb 0.00 in0.0 mm 0.00 in/hr0.0 mm/hr 0.00 in0.0 mm
01:35 AM 54.7°F12.6°C 53.9°F12.2°C 97% Calm Calm -- 29.98 in1015.2 mb 0.00 in0.0 mm 0.00 in/hr0.0 mm/hr 0.00 in0.0 mm
01:30 AM 54.7°F12.6°C 53.9°F12.2°C 97% Calm Calm -- 29.98 in1015.2 mb 0.00 in0.0 mm 0.00 in/hr0.0 mm/hr 0.00 in0.0 mm
01:25 AM 54.9°F12.7°C 54.0°F12.2°C 97% Calm Calm -- 29.98 in1015.2 mb 0.00 in0.0 mm 0.00 in/hr0.0 mm/hr 0.00 in0.0 mm
01:20 AM 54.9°F12.7°C 54.0°F12.2°C 97% Calm Calm 0.7 mph1.1 kmh 29.98 in1015.2 mb 0.00 in0.0 mm 0.00 in/hr0.0 mm/hr 0.00 in0.0 mm
01:15 AM 54.9°F12.7°C 54.0°F12.2°C 97% Calm Calm 0.7 mph1.1 kmh 29.98 in1015.2 mb 0.00 in0.0 mm 0.00 in/hr0.0 mm/hr 0.00 in0.0 mm
01:10 AM 55.2°F12.9°C 54.4°F12.4°C 97% Calm Calm 0.7 mph1.1 kmh 29.98 in1015.2 mb 0.00 in0.0 mm 0.00 in/hr0.0 mm/hr 0.00 in0.0 mm
01:05 AM 54.9°F12.7°C 54.0°F12.2°C 97% Calm Calm 0.7 mph1.1 kmh 29.98 in1015.2 mb 0.00 in0.0 mm 0.00 in/hr0.0 mm/hr 0.00 in0.0 mm
01:00 AM 54.9°F12.7°C 54.0°F12.2°C 97% Calm Calm 0.7 mph1.1 kmh 29.98 in1015.2 mb 0.00 in0.0 mm 0.00 in/hr0.0 mm/hr 0.00 in0.0 mm
12:55 AM 54.9°F12.7°C 54.0°F12.2°C 97% Calm Calm 0.7 mph1.1 kmh 29.98 in1015.2 mb 0.00 in0.0 mm 0.00 in/hr0.0 mm/hr 0.00 in0.0 mm
12:50 AM 54.9°F12.7°C 54.0°F12.2°C 97% Calm Calm 0.7 mph1.1 kmh 29.98 in1015.2 mb 0.00 in0.0 mm 0.00 in/hr0.0 mm/hr 0.00 in0.0 mm
12:45 AM 54.9°F12.7°C 54.0°F12.2°C 97% Calm Calm 0.7 mph1.1 kmh 29.98 in1015.2 mb 0.00 in0.0 mm 0.00 in/hr0.0 mm/hr 0.00 in0.0 mm
12:40 AM 54.9°F12.7°C 54.0°F12.2°C 97% Calm Calm 0.7 mph1.1 kmh 29.98 in1015.2 mb 0.00 in0.0 mm 0.00 in/hr0.0 mm/hr 0.00 in0.0 mm
12:35 AM 54.9°F12.7°C 53.7°F12.1°C 96% Calm Calm 0.7 mph1.1 kmh 29.97 in1014.9 mb 0.00 in0.0 mm 0.00 in/hr0.0 mm/hr 0.00 in0.0 mm
12:30 AM 54.9°F12.7°C 53.7°F12.1°C 96% Calm Calm 0.7 mph1.1 kmh 29.97 in1014.9 mb 0.00 in0.0 mm 0.00 in/hr0.0 mm/hr 0.00 in0.0 mm
12:25 AM 54.9°F12.7°C 53.7°F12.1°C 96% Calm Calm 1.6 mph2.6 kmh 29.97 in1014.9 mb 0.00 in0.0 mm 0.00 in/hr0.0 mm/hr 0.00 in0.0 mm
12:20 AM 54.9°F12.7°C 53.7°F12.1°C 96% Calm Calm 1.6 mph2.6 kmh 29.97 in1014.9 mb 0.00 in0.0 mm 0.00 in/hr0.0 mm/hr 0.00 in0.0 mm
12:15 AM 54.9°F12.7°C 53.7°F12.1°C 96% Calm Calm 1.6 mph2.6 kmh 29.97 in1014.9 mb 0.00 in0.0 mm 0.00 in/hr0.0 mm/hr 0.00 in0.0 mm
12:10 AM 54.9°F12.7°C 53.5°F11.9°C 95% Calm Calm 2.2 mph3.5 kmh 29.97 in1014.9 mb 0.00 in0.0 mm 0.00 in/hr0.0 mm/hr 0.00 in0.0 mm
12:05 AM 54.9°F12.7°C 53.5°F11.9°C 95% Calm Calm 2.2 mph3.5 kmh 29.97 in1014.9 mb 0.00 in0.0 mm 0.00 in/hr0.0 mm/hr 0.00 in0.0 mm
12:00 AM 55.2°F12.9°C 54.1°F12.3°C 96% 0.7 mph ESE1.1 kmh ESE 2.2 mph3.5 kmh 29.96 in1014.6 mb 0.00 in0.0 mm 0.00 in/hr0.0 mm/hr 0.00 in0.0 mm